sensor_id;sensor_type;location;lat;lon;timestamp;P1;durP1;ratioP1;P2;durP2;ratioP2
24008;SDS011;12217;50.792;4.372;2023-07-31T00:01:14;16.92;;;5.93;;
24008;SDS011;12217;50.792;4.372;2023-07-31T00:03:40;18.17;;;6.57;;
24008;SDS011;12217;50.792;4.372;2023-07-31T00:06:05;18.30;;;6.38;;
24008;SDS011;12217;50.792;4.372;2023-07-31T00:08:31;15.18;;;6.50;;
24008;SDS011;12217;50.792;4.372;2023-07-31T00:10:57;16.77;;;5.93;;
24008;SDS011;12217;50.792;4.372;2023-07-31T00:13:22;19.75;;;6.15;;
24008;SDS011;12217;50.792;4.372;2023-07-31T00:15:48;17.45;;;6.65;;
24008;SDS011;12217;50.792;4.372;2023-07-31T00:18:14;17.25;;;6.25;;
24008;SDS011;12217;50.792;4.372;2023-07-31T00:20:39;17.05;;;6.75;;
24008;SDS011;12217;50.792;4.372;2023-07-31T00:23:05;21.40;;;6.85;;
24008;SDS011;12217;50.792;4.372;2023-07-31T00:25:31;14.55;;;6.25;;
24008;SDS011;12217;50.792;4.372;2023-07-31T00:27:56;16.55;;;6.97;;
24008;SDS011;12217;50.792;4.372;2023-07-31T00:30:22;16.00;;;6.68;;
24008;SDS011;12217;50.792;4.372;2023-07-31T00:32:50;17.95;;;6.90;;
24008;SDS011;12217;50.792;4.372;2023-07-31T00:35:15;20.92;;;7.65;;
24008;SDS011;12217;50.792;4.372;2023-07-31T00:37:41;14.82;;;6.53;;
24008;SDS011;12217;50.792;4.372;2023-07-31T00:40:08;18.77;;;6.55;;
24008;SDS011;12217;50.792;4.372;2023-07-31T00:42:34;14.30;;;6.35;;
24008;SDS011;12217;50.792;4.372;2023-07-31T00:44:59;16.65;;;6.72;;
24008;SDS011;12217;50.792;4.372;2023-07-31T00:47:25;15.52;;;6.40;;
24008;SDS011;12217;50.792;4.372;2023-07-31T00:49:51;16.48;;;6.47;;
24008;SDS011;12217;50.792;4.372;2023-07-31T00:52:17;13.90;;;5.90;;
24008;SDS011;12217;50.792;4.372;2023-07-31T00:54:43;14.57;;;6.78;;
24008;SDS011;12217;50.792;4.372;2023-07-31T00:57:09;16.42;;;6.28;;
24008;SDS011;12217;50.792;4.372;2023-07-31T00:59:35;14.40;;;6.53;;
24008;SDS011;12217;50.792;4.372;2023-07-31T01:02:00;14.02;;;6.47;;
24008;SDS011;12217;50.792;4.372;2023-07-31T01:04:26;14.32;;;6.00;;
24008;SDS011;12217;50.792;4.372;2023-07-31T01:12:12;16.02;;;6.05;;
24008;SDS011;12217;50.792;4.372;2023-07-31T01:14:44;14.77;;;6.40;;
24008;SDS011;12217;50.792;4.372;2023-07-31T01:17:16;17.73;;;7.00;;
24008;SDS011;12217;50.792;4.372;2023-07-31T01:19:42;16.85;;;6.45;;
24008;SDS011;12217;50.792;4.372;2023-07-31T01:24:40;16.38;;;6.68;;
24008;SDS011;12217;50.792;4.372;2023-07-31T01:27:21;19.85;;;7.00;;
24008;SDS011;12217;50.792;4.372;2023-07-31T01:32:22;17.45;;;7.05;;
24008;SDS011;12217;50.792;4.372;2023-07-31T01:34:49;16.02;;;7.15;;
24008;SDS011;12217;50.792;4.372;2023-07-31T01:37:15;14.65;;;6.57;;
24008;SDS011;12217;50.792;4.372;2023-07-31T01:39:41;17.00;;;7.55;;
24008;SDS011;12217;50.792;4.372;2023-07-31T01:42:06;14.82;;;6.65;;
24008;SDS011;12217;50.792;4.372;2023-07-31T01:44:32;14.05;;;7.18;;
24008;SDS011;12217;50.792;4.372;2023-07-31T01:46:58;14.18;;;7.53;;
24008;SDS011;12217;50.792;4.372;2023-07-31T01:49:25;19.65;;;7.53;;
24008;SDS011;12217;50.792;4.372;2023-07-31T01:51:50;18.48;;;7.38;;
24008;SDS011;12217;50.792;4.372;2023-07-31T01:54:16;13.73;;;7.50;;
24008;SDS011;12217;50.792;4.372;2023-07-31T01:56:42;13.43;;;7.05;;
24008;SDS011;12217;50.792;4.372;2023-07-31T01:59:07;17.95;;;7.47;;
24008;SDS011;12217;50.792;4.372;2023-07-31T02:01:33;16.83;;;7.47;;
24008;SDS011;12217;50.792;4.372;2023-07-31T02:03:58;12.93;;;7.57;;
24008;SDS011;12217;50.792;4.372;2023-07-31T02:06:24;11.68;;;6.65;;
24008;SDS011;12217;50.792;4.372;2023-07-31T02:08:50;16.60;;;7.20;;
24008;SDS011;12217;50.792;4.372;2023-07-31T02:11:15;14.95;;;7.55;;
24008;SDS011;12217;50.792;4.372;2023-07-31T02:13:41;14.70;;;6.93;;
24008;SDS011;12217;50.792;4.372;2023-07-31T02:16:06;15.45;;;7.80;;
24008;SDS011;12217;50.792;4.372;2023-07-31T02:18:32;13.52;;;7.20;;
24008;SDS011;12217;50.792;4.372;2023-07-31T02:20:58;12.43;;;6.95;;
24008;SDS011;12217;50.792;4.372;2023-07-31T02:23:23;12.05;;;6.97;;
24008;SDS011;12217;50.792;4.372;2023-07-31T02:25:49;14.30;;;7.60;;
24008;SDS011;12217;50.792;4.372;2023-07-31T02:28:14;16.55;;;7.20;;
24008;SDS011;12217;50.792;4.372;2023-07-31T02:30:43;12.65;;;7.13;;
24008;SDS011;12217;50.792;4.372;2023-07-31T02:33:10;12.70;;;6.63;;
24008;SDS011;12217;50.792;4.372;2023-07-31T02:35:36;12.30;;;7.15;;
24008;SDS011;12217;50.792;4.372;2023-07-31T02:38:01;10.98;;;6.53;;
24008;SDS011;12217;50.792;4.372;2023-07-31T02:40:27;12.93;;;6.40;;
24008;SDS011;12217;50.792;4.372;2023-07-31T02:42:52;12.57;;;6.40;;
24008;SDS011;12217;50.792;4.372;2023-07-31T02:45:18;12.15;;;6.75;;
24008;SDS011;12217;50.792;4.372;2023-07-31T02:47:43;11.10;;;6.40;;
24008;SDS011;12217;50.792;4.372;2023-07-31T02:50:09;10.25;;;6.20;;
24008;SDS011;12217;50.792;4.372;2023-07-31T02:52:35;12.02;;;5.80;;
24008;SDS011;12217;50.792;4.372;2023-07-31T02:55:01;8.32;;;5.60;;
24008;SDS011;12217;50.792;4.372;2023-07-31T02:57:26;9.52;;;5.60;;
24008;SDS011;12217;50.792;4.372;2023-07-31T02:59:52;9.85;;;5.45;;
24008;SDS011;12217;50.792;4.372;2023-07-31T03:02:18;9.20;;;5.70;;
24008;SDS011;12217;50.792;4.372;2023-07-31T03:04:43;9.65;;;5.57;;
24008;SDS011;12217;50.792;4.372;2023-07-31T03:07:09;12.35;;;5.60;;
24008;SDS011;12217;50.792;4.372;2023-07-31T03:09:34;10.38;;;5.75;;
24008;SDS011;12217;50.792;4.372;2023-07-31T03:12:00;9.63;;;5.97;;
24008;SDS011;12217;50.792;4.372;2023-07-31T03:14:26;8.00;;;5.47;;
24008;SDS011;12217;50.792;4.372;2023-07-31T03:16:51;10.32;;;5.20;;
24008;SDS011;12217;50.792;4.372;2023-07-31T03:19:17;8.30;;;5.15;;
24008;SDS011;12217;50.792;4.372;2023-07-31T03:21:43;12.73;;;5.50;;
24008;SDS011;12217;50.792;4.372;2023-07-31T03:24:08;10.63;;;5.45;;
24008;SDS011;12217;50.792;4.372;2023-07-31T03:26:34;10.30;;;5.50;;
24008;SDS011;12217;50.792;4.372;2023-07-31T03:29:01;10.82;;;6.05;;
24008;SDS011;12217;50.792;4.372;2023-07-31T03:31:26;11.05;;;5.80;;
24008;SDS011;12217;50.792;4.372;2023-07-31T03:33:52;9.90;;;5.63;;
24008;SDS011;12217;50.792;4.372;2023-07-31T03:36:17;8.93;;;5.57;;
24008;SDS011;12217;50.792;4.372;2023-07-31T03:38:43;9.43;;;5.85;;
24008;SDS011;12217;50.792;4.372;2023-07-31T03:41:09;13.35;;;6.30;;
24008;SDS011;12217;50.792;4.372;2023-07-31T03:43:35;10.13;;;5.93;;
24008;SDS011;12217;50.792;4.372;2023-07-31T03:46:01;14.07;;;6.15;;
24008;SDS011;12217;50.792;4.372;2023-07-31T03:48:27;7.28;;;5.63;;
24008;SDS011;12217;50.792;4.372;2023-07-31T03:50:53;12.93;;;6.57;;
24008;SDS011;12217;50.792;4.372;2023-07-31T03:53:19;11.35;;;6.00;;
24008;SDS011;12217;50.792;4.372;2023-07-31T03:55:45;8.82;;;5.88;;
24008;SDS011;12217;50.792;4.372;2023-07-31T03:58:10;9.63;;;5.72;;
24008;SDS011;12217;50.792;4.372;2023-07-31T04:00:36;10.48;;;6.13;;
24008;SDS011;12217;50.792;4.372;2023-07-31T04:03:01;10.18;;;5.60;;
24008;SDS011;12217;50.792;4.372;2023-07-31T04:05:29;12.57;;;6.45;;
24008;SDS011;12217;50.792;4.372;2023-07-31T04:07:55;12.65;;;6.68;;
24008;SDS011;12217;50.792;4.372;2023-07-31T04:10:20;12.55;;;6.57;;
24008;SDS011;12217;50.792;4.372;2023-07-31T04:12:46;10.75;;;5.70;;
24008;SDS011;12217;50.792;4.372;2023-07-31T04:15:12;8.80;;;5.63;;
24008;SDS011;12217;50.792;4.372;2023-07-31T04:17:37;10.00;;;5.80;;
24008;SDS011;12217;50.792;4.372;2023-07-31T04:20:03;15.93;;;5.97;;
24008;SDS011;12217;50.792;4.372;2023-07-31T04:22:29;10.98;;;6.15;;
24008;SDS011;12217;50.792;4.372;2023-07-31T04:24:54;10.43;;;5.82;;
24008;SDS011;12217;50.792;4.372;2023-07-31T04:27:20;11.93;;;5.95;;
24008;SDS011;12217;50.792;4.372;2023-07-31T04:29:45;9.82;;;5.38;;
24008;SDS011;12217;50.792;4.372;2023-07-31T04:32:12;12.88;;;5.70;;
24008;SDS011;12217;50.792;4.372;2023-07-31T04:34:38;12.20;;;5.97;;
24008;SDS011;12217;50.792;4.372;2023-07-31T04:37:03;12.57;;;5.40;;
24008;SDS011;12217;50.792;4.372;2023-07-31T04:39:29;11.20;;;6.10;;
24008;SDS011;12217;50.792;4.372;2023-07-31T04:41:55;10.68;;;5.63;;
24008;SDS011;12217;50.792;4.372;2023-07-31T04:44:20;12.43;;;5.40;;
24008;SDS011;12217;50.792;4.372;2023-07-31T04:46:46;10.40;;;5.68;;
24008;SDS011;12217;50.792;4.372;2023-07-31T04:49:11;10.95;;;5.80;;
24008;SDS011;12217;50.792;4.372;2023-07-31T04:51:37;9.05;;;5.38;;
24008;SDS011;12217;50.792;4.372;2023-07-31T04:54:02;11.55;;;5.80;;
24008;SDS011;12217;50.792;4.372;2023-07-31T04:56:28;9.98;;;6.07;;
24008;SDS011;12217;50.792;4.372;2023-07-31T04:58:53;10.25;;;5.57;;
24008;SDS011;12217;50.792;4.372;2023-07-31T05:01:19;11.43;;;6.45;;
24008;SDS011;12217;50.792;4.372;2023-07-31T05:03:45;9.15;;;6.05;;
24008;SDS011;12217;50.792;4.372;2023-07-31T05:06:11;12.07;;;5.82;;
24008;SDS011;12217;50.792;4.372;2023-07-31T05:08:37;9.70;;;6.03;;
24008;SDS011;12217;50.792;4.372;2023-07-31T05:11:02;13.57;;;6.82;;
24008;SDS011;12217;50.792;4.372;2023-07-31T05:13:28;8.80;;;5.93;;
24008;SDS011;12217;50.792;4.372;2023-07-31T05:15:54;9.65;;;5.80;;
24008;SDS011;12217;50.792;4.372;2023-07-31T05:18:19;12.68;;;6.05;;
24008;SDS011;12217;50.792;4.372;2023-07-31T05:20:45;14.68;;;6.00;;
24008;SDS011;12217;50.792;4.372;2023-07-31T05:23:10;10.70;;;5.60;;
24008;SDS011;12217;50.792;4.372;2023-07-31T05:25:36;12.95;;;5.78;;
24008;SDS011;12217;50.792;4.372;2023-07-31T05:28:01;12.15;;;6.18;;
24008;SDS011;12217;50.792;4.372;2023-07-31T05:30:29;11.30;;;6.47;;
24008;SDS011;12217;50.792;4.372;2023-07-31T05:32:55;10.80;;;6.60;;
24008;SDS011;12217;50.792;4.372;2023-07-31T05:35:20;12.57;;;6.32;;
24008;SDS011;12217;50.792;4.372;2023-07-31T05:37:46;14.18;;;6.50;;
24008;SDS011;12217;50.792;4.372;2023-07-31T05:40:11;10.35;;;5.80;;
24008;SDS011;12217;50.792;4.372;2023-07-31T05:42:37;9.60;;;6.07;;
24008;SDS011;12217;50.792;4.372;2023-07-31T05:45:03;16.27;;;6.10;;
24008;SDS011;12217;50.792;4.372;2023-07-31T05:47:30;13.13;;;6.25;;
24008;SDS011;12217;50.792;4.372;2023-07-31T05:49:56;15.93;;;6.22;;
24008;SDS011;12217;50.792;4.372;2023-07-31T05:52:21;14.93;;;6.35;;
24008;SDS011;12217;50.792;4.372;2023-07-31T05:54:47;10.30;;;6.68;;
24008;SDS011;12217;50.792;4.372;2023-07-31T05:57:12;16.45;;;6.88;;
24008;SDS011;12217;50.792;4.372;2023-07-31T05:59:38;12.73;;;6.65;;
24008;SDS011;12217;50.792;4.372;2023-07-31T06:02:04;13.38;;;6.70;;
24008;SDS011;12217;50.792;4.372;2023-07-31T06:04:29;10.32;;;5.53;;
24008;SDS011;12217;50.792;4.372;2023-07-31T06:06:55;13.50;;;6.00;;
24008;SDS011;12217;50.792;4.372;2023-07-31T06:09:21;11.25;;;6.10;;
24008;SDS011;12217;50.792;4.372;2023-07-31T06:11:47;13.02;;;6.18;;
24008;SDS011;12217;50.792;4.372;2023-07-31T06:14:12;12.43;;;6.15;;
24008;SDS011;12217;50.792;4.372;2023-07-31T06:16:38;11.65;;;5.88;;
24008;SDS011;12217;50.792;4.372;2023-07-31T06:19:04;9.80;;;6.07;;
24008;SDS011;12217;50.792;4.372;2023-07-31T06:21:29;11.93;;;5.93;;
24008;SDS011;12217;50.792;4.372;2023-07-31T06:23:56;9.38;;;5.93;;
24008;SDS011;12217;50.792;4.372;2023-07-31T06:26:21;10.60;;;6.05;;
24008;SDS011;12217;50.792;4.372;2023-07-31T06:28:47;14.15;;;6.63;;
24008;SDS011;12217;50.792;4.372;2023-07-31T06:31:12;8.82;;;5.55;;
24008;SDS011;12217;50.792;4.372;2023-07-31T06:33:38;9.65;;;6.10;;
24008;SDS011;12217;50.792;4.372;2023-07-31T06:36:03;9.02;;;5.30;;
24008;SDS011;12217;50.792;4.372;2023-07-31T06:38:29;12.50;;;5.40;;
24008;SDS011;12217;50.792;4.372;2023-07-31T06:40:55;11.52;;;5.65;;
24008;SDS011;12217;50.792;4.372;2023-07-31T06:43:20;9.40;;;5.30;;
24008;SDS011;12217;50.792;4.372;2023-07-31T06:45:46;10.90;;;5.28;;
24008;SDS011;12217;50.792;4.372;2023-07-31T06:48:13;8.48;;;5.30;;
24008;SDS011;12217;50.792;4.372;2023-07-31T06:50:39;10.07;;;4.95;;
24008;SDS011;12217;50.792;4.372;2023-07-31T06:53:04;13.63;;;5.63;;
24008;SDS011;12217;50.792;4.372;2023-07-31T06:55:30;10.32;;;5.20;;
24008;SDS011;12217;50.792;4.372;2023-07-31T06:57:56;9.88;;;5.38;;
24008;SDS011;12217;50.792;4.372;2023-07-31T07:00:22;8.55;;;5.05;;
24008;SDS011;12217;50.792;4.372;2023-07-31T07:02:48;12.05;;;4.80;;
24008;SDS011;12217;50.792;4.372;2023-07-31T07:05:15;10.70;;;5.38;;
24008;SDS011;12217;50.792;4.372;2023-07-31T07:07:42;7.30;;;4.63;;
24008;SDS011;12217;50.792;4.372;2023-07-31T07:10:08;8.93;;;4.78;;
24008;SDS011;12217;50.792;4.372;2023-07-31T07:12:34;8.75;;;4.70;;
24008;SDS011;12217;50.792;4.372;2023-07-31T07:15:00;11.75;;;5.47;;
24008;SDS011;12217;50.792;4.372;2023-07-31T07:17:27;9.35;;;4.45;;
24008;SDS011;12217;50.792;4.372;2023-07-31T07:19:56;9.23;;;4.70;;
24008;SDS011;12217;50.792;4.372;2023-07-31T07:22:22;9.40;;;4.63;;
24008;SDS011;12217;50.792;4.372;2023-07-31T07:24:48;8.07;;;4.25;;
24008;SDS011;12217;50.792;4.372;2023-07-31T07:27:13;9.93;;;4.40;;
24008;SDS011;12217;50.792;4.372;2023-07-31T07:29:39;9.73;;;4.40;;
24008;SDS011;12217;50.792;4.372;2023-07-31T07:32:05;8.02;;;4.60;;
24008;SDS011;12217;50.792;4.372;2023-07-31T07:34:31;14.07;;;5.35;;
24008;SDS011;12217;50.792;4.372;2023-07-31T07:36:57;8.63;;;4.70;;
24008;SDS011;12217;50.792;4.372;2023-07-31T07:39:22;7.78;;;4.20;;
24008;SDS011;12217;50.792;4.372;2023-07-31T07:41:48;9.68;;;4.28;;
24008;SDS011;12217;50.792;4.372;2023-07-31T07:44:14;10.60;;;4.93;;
24008;SDS011;12217;50.792;4.372;2023-07-31T07:46:40;9.63;;;4.57;;
24008;SDS011;12217;50.792;4.372;2023-07-31T07:49:05;9.88;;;4.70;;
24008;SDS011;12217;50.792;4.372;2023-07-31T07:51:31;8.13;;;4.63;;
24008;SDS011;12217;50.792;4.372;2023-07-31T07:53:57;9.20;;;4.15;;
24008;SDS011;12217;50.792;4.372;2023-07-31T07:56:23;9.82;;;4.40;;
24008;SDS011;12217;50.792;4.372;2023-07-31T07:58:50;8.60;;;4.20;;
24008;SDS011;12217;50.792;4.372;2023-07-31T08:01:16;10.25;;;4.75;;
24008;SDS011;12217;50.792;4.372;2023-07-31T08:03:41;7.47;;;3.90;;
24008;SDS011;12217;50.792;4.372;2023-07-31T08:06:07;11.00;;;4.22;;
24008;SDS011;12217;50.792;4.372;2023-07-31T08:08:34;7.57;;;4.10;;
24008;SDS011;12217;50.792;4.372;2023-07-31T08:11:00;9.48;;;4.30;;
24008;SDS011;12217;50.792;4.372;2023-07-31T08:13:26;10.13;;;4.63;;
24008;SDS011;12217;50.792;4.372;2023-07-31T08:15:51;9.45;;;4.10;;
24008;SDS011;12217;50.792;4.372;2023-07-31T08:18:17;8.50;;;4.70;;
24008;SDS011;12217;50.792;4.372;2023-07-31T08:20:43;5.80;;;3.85;;
24008;SDS011;12217;50.792;4.372;2023-07-31T08:23:08;7.95;;;4.10;;
24008;SDS011;12217;50.792;4.372;2023-07-31T08:25:37;6.43;;;3.72;;
24008;SDS011;12217;50.792;4.372;2023-07-31T08:28:03;6.05;;;3.75;;
24008;SDS011;12217;50.792;4.372;2023-07-31T08:30:29;9.50;;;3.88;;
24008;SDS011;12217;50.792;4.372;2023-07-31T08:32:55;11.63;;;4.90;;
24008;SDS011;12217;50.792;4.372;2023-07-31T08:35:21;8.63;;;4.50;;
24008;SDS011;12217;50.792;4.372;2023-07-31T08:37:47;8.30;;;4.15;;
24008;SDS011;12217;50.792;4.372;2023-07-31T08:40:12;8.70;;;3.97;;
24008;SDS011;12217;50.792;4.372;2023-07-31T08:42:45;8.52;;;4.25;;
24008;SDS011;12217;50.792;4.372;2023-07-31T08:45:15;10.75;;;4.30;;
24008;SDS011;12217;50.792;4.372;2023-07-31T08:47:45;7.75;;;4.45;;
24008;SDS011;12217;50.792;4.372;2023-07-31T08:50:16;8.77;;;4.60;;
24008;SDS011;12217;50.792;4.372;2023-07-31T08:52:45;7.07;;;3.90;;
24008;SDS011;12217;50.792;4.372;2023-07-31T08:55:11;7.43;;;4.32;;
24008;SDS011;12217;50.792;4.372;2023-07-31T08:57:37;8.85;;;4.55;;
24008;SDS011;12217;50.792;4.372;2023-07-31T09:00:04;7.63;;;4.07;;
24008;SDS011;12217;50.792;4.372;2023-07-31T09:02:37;8.35;;;4.82;;
24008;SDS011;12217;50.792;4.372;2023-07-31T09:05:08;9.90;;;4.72;;
24008;SDS011;12217;50.792;4.372;2023-07-31T09:07:35;8.13;;;4.82;;
24008;SDS011;12217;50.792;4.372;2023-07-31T09:10:02;10.30;;;4.55;;
24008;SDS011;12217;50.792;4.372;2023-07-31T09:12:28;7.40;;;4.50;;
24008;SDS011;12217;50.792;4.372;2023-07-31T09:14:55;7.07;;;4.28;;
24008;SDS011;12217;50.792;4.372;2023-07-31T09:17:32;10.90;;;4.80;;
24008;SDS011;12217;50.792;4.372;2023-07-31T09:20:20;7.32;;;4.55;;
24008;SDS011;12217;50.792;4.372;2023-07-31T09:22:45;10.10;;;4.80;;
24008;SDS011;12217;50.792;4.372;2023-07-31T09:25:22;9.63;;;5.07;;
24008;SDS011;12217;50.792;4.372;2023-07-31T09:27:50;9.60;;;5.22;;
24008;SDS011;12217;50.792;4.372;2023-07-31T09:30:17;10.70;;;5.05;;
24008;SDS011;12217;50.792;4.372;2023-07-31T09:32:46;9.80;;;5.15;;
24008;SDS011;12217;50.792;4.372;2023-07-31T09:35:14;11.48;;;5.78;;
24008;SDS011;12217;50.792;4.372;2023-07-31T09:37:51;8.98;;;5.15;;
24008;SDS011;12217;50.792;4.372;2023-07-31T09:43:03;11.63;;;5.70;;
24008;SDS011;12217;50.792;4.372;2023-07-31T09:45:30;12.48;;;6.15;;
24008;SDS011;12217;50.792;4.372;2023-07-31T09:48:02;11.77;;;6.43;;
24008;SDS011;12217;50.792;4.372;2023-07-31T09:50:31;12.95;;;6.40;;
24008;SDS011;12217;50.792;4.372;2023-07-31T09:52:57;10.68;;;6.55;;
24008;SDS011;12217;50.792;4.372;2023-07-31T09:55:23;12.52;;;7.18;;
24008;SDS011;12217;50.792;4.372;2023-07-31T09:57:49;16.60;;;7.57;;
24008;SDS011;12217;50.792;4.372;2023-07-31T10:00:16;12.57;;;7.05;;
24008;SDS011;12217;50.792;4.372;2023-07-31T10:02:44;12.25;;;6.90;;
24008;SDS011;12217;50.792;4.372;2023-07-31T10:05:12;13.27;;;7.10;;
24008;SDS011;12217;50.792;4.372;2023-07-31T10:07:41;12.07;;;6.50;;
24008;SDS011;12217;50.792;4.372;2023-07-31T10:10:13;16.85;;;6.38;;
24008;SDS011;12217;50.792;4.372;2023-07-31T10:12:40;10.10;;;7.13;;
24008;SDS011;12217;50.792;4.372;2023-07-31T10:15:07;13.38;;;7.45;;
24008;SDS011;12217;50.792;4.372;2023-07-31T10:17:34;12.77;;;7.28;;
24008;SDS011;12217;50.792;4.372;2023-07-31T10:20:01;12.40;;;7.05;;
24008;SDS011;12217;50.792;4.372;2023-07-31T10:22:30;15.45;;;6.93;;
24008;SDS011;12217;50.792;4.372;2023-07-31T10:25:00;11.98;;;7.00;;
24008;SDS011;12217;50.792;4.372;2023-07-31T10:27:26;14.55;;;6.97;;
24008;SDS011;12217;50.792;4.372;2023-07-31T10:29:53;14.30;;;7.03;;
24008;SDS011;12217;50.792;4.372;2023-07-31T10:32:21;12.38;;;7.90;;
24008;SDS011;12217;50.792;4.372;2023-07-31T10:34:49;13.20;;;7.07;;
24008;SDS011;12217;50.792;4.372;2023-07-31T10:37:22;13.73;;;7.13;;
24008;SDS011;12217;50.792;4.372;2023-07-31T10:39:55;11.23;;;7.15;;
24008;SDS011;12217;50.792;4.372;2023-07-31T10:42:20;13.00;;;7.00;;
24008;SDS011;12217;50.792;4.372;2023-07-31T10:45:08;13.73;;;6.53;;
24008;SDS011;12217;50.792;4.372;2023-07-31T10:47:38;13.82;;;6.75;;
24008;SDS011;12217;50.792;4.372;2023-07-31T10:52:44;14.48;;;6.95;;
24008;SDS011;12217;50.792;4.372;2023-07-31T10:55:16;14.30;;;6.60;;
24008;SDS011;12217;50.792;4.372;2023-07-31T10:58:04;13.07;;;6.55;;
24008;SDS011;12217;50.792;4.372;2023-07-31T11:00:31;11.93;;;6.05;;
24008;SDS011;12217;50.792;4.372;2023-07-31T11:02:58;10.57;;;6.63;;
24008;SDS011;12217;50.792;4.372;2023-07-31T11:08:17;14.23;;;6.72;;
24008;SDS011;12217;50.792;4.372;2023-07-31T11:10:48;11.80;;;6.50;;
24008;SDS011;12217;50.792;4.372;2023-07-31T11:13:27;13.55;;;6.60;;
24008;SDS011;12217;50.792;4.372;2023-07-31T11:15:59;13.85;;;7.13;;
24008;SDS011;12217;50.792;4.372;2023-07-31T11:18:25;10.52;;;5.60;;
24008;SDS011;12217;50.792;4.372;2023-07-31T11:20:52;14.70;;;7.00;;
24008;SDS011;12217;50.792;4.372;2023-07-31T11:23:19;13.88;;;6.57;;
24008;SDS011;12217;50.792;4.372;2023-07-31T11:25:45;10.98;;;6.13;;
24008;SDS011;12217;50.792;4.372;2023-07-31T11:28:11;12.50;;;5.85;;
24008;SDS011;12217;50.792;4.372;2023-07-31T11:30:38;9.88;;;6.03;;
24008;SDS011;12217;50.792;4.372;2023-07-31T11:33:05;15.32;;;6.63;;
24008;SDS011;12217;50.792;4.372;2023-07-31T11:35:36;10.13;;;6.03;;
24008;SDS011;12217;50.792;4.372;2023-07-31T11:38:10;15.45;;;6.07;;
24008;SDS011;12217;50.792;4.372;2023-07-31T11:40:56;13.00;;;6.38;;
24008;SDS011;12217;50.792;4.372;2023-07-31T11:43:24;9.40;;;5.47;;
24008;SDS011;12217;50.792;4.372;2023-07-31T11:45:52;10.95;;;5.78;;
24008;SDS011;12217;50.792;4.372;2023-07-31T11:48:19;12.88;;;5.50;;
24008;SDS011;12217;50.792;4.372;2023-07-31T11:50:50;14.23;;;6.53;;
24008;SDS011;12217;50.792;4.372;2023-07-31T11:53:17;14.27;;;5.90;;
24008;SDS011;12217;50.792;4.372;2023-07-31T11:55:47;17.23;;;6.70;;
24008;SDS011;12217;50.792;4.372;2023-07-31T11:58:13;10.35;;;5.43;;
24008;SDS011;12217;50.792;4.372;2023-07-31T12:00:40;9.55;;;5.85;;
24008;SDS011;12217;50.792;4.372;2023-07-31T12:03:06;12.32;;;6.10;;
24008;SDS011;12217;50.792;4.372;2023-07-31T12:05:32;11.05;;;5.90;;
24008;SDS011;12217;50.792;4.372;2023-07-31T12:07:58;12.05;;;5.65;;
24008;SDS011;12217;50.792;4.372;2023-07-31T12:10:24;11.68;;;5.85;;
24008;SDS011;12217;50.792;4.372;2023-07-31T12:12:58;7.70;;;5.72;;
24008;SDS011;12217;50.792;4.372;2023-07-31T12:15:39;13.48;;;6.13;;
24008;SDS011;12217;50.792;4.372;2023-07-31T12:18:07;11.20;;;6.30;;
24008;SDS011;12217;50.792;4.372;2023-07-31T12:20:43;13.68;;;6.28;;
24008;SDS011;12217;50.792;4.372;2023-07-31T12:23:14;9.45;;;5.13;;
24008;SDS011;12217;50.792;4.372;2023-07-31T12:25:41;11.80;;;6.03;;
24008;SDS011;12217;50.792;4.372;2023-07-31T12:28:07;9.90;;;5.53;;
24008;SDS011;12217;50.792;4.372;2023-07-31T12:30:36;10.30;;;6.00;;
24008;SDS011;12217;50.792;4.372;2023-07-31T12:33:07;12.00;;;6.30;;
24008;SDS011;12217;50.792;4.372;2023-07-31T12:35:41;10.40;;;5.75;;
24008;SDS011;12217;50.792;4.372;2023-07-31T12:38:11;9.80;;;5.40;;
24008;SDS011;12217;50.792;4.372;2023-07-31T12:40:38;11.65;;;6.30;;
24008;SDS011;12217;50.792;4.372;2023-07-31T12:43:05;13.60;;;6.50;;
24008;SDS011;12217;50.792;4.372;2023-07-31T12:45:30;13.40;;;6.43;;
24008;SDS011;12217;50.792;4.372;2023-07-31T12:47:57;11.05;;;5.90;;
24008;SDS011;12217;50.792;4.372;2023-07-31T12:50:23;9.60;;;6.00;;
24008;SDS011;12217;50.792;4.372;2023-07-31T12:52:50;12.15;;;6.13;;
24008;SDS011;12217;50.792;4.372;2023-07-31T12:55:16;9.85;;;5.80;;
24008;SDS011;12217;50.792;4.372;2023-07-31T12:57:43;11.38;;;6.32;;
24008;SDS011;12217;50.792;4.372;2023-07-31T13:00:09;15.30;;;7.13;;
24008;SDS011;12217;50.792;4.372;2023-07-31T13:02:36;10.60;;;6.57;;
24008;SDS011;12217;50.792;4.372;2023-07-31T13:05:01;15.88;;;6.40;;
24008;SDS011;12217;50.792;4.372;2023-07-31T13:07:27;13.95;;;6.22;;
24008;SDS011;12217;50.792;4.372;2023-07-31T13:09:53;12.75;;;6.40;;
24008;SDS011;12217;50.792;4.372;2023-07-31T13:12:18;9.70;;;6.03;;
24008;SDS011;12217;50.792;4.372;2023-07-31T13:14:44;11.35;;;5.90;;
24008;SDS011;12217;50.792;4.372;2023-07-31T13:17:09;9.75;;;5.30;;
24008;SDS011;12217;50.792;4.372;2023-07-31T13:19:35;10.55;;;4.82;;
24008;SDS011;12217;50.792;4.372;2023-07-31T13:22:00;12.73;;;5.13;;
24008;SDS011;12217;50.792;4.372;2023-07-31T13:24:26;11.48;;;5.75;;
24008;SDS011;12217;50.792;4.372;2023-07-31T13:26:52;11.07;;;5.53;;
24008;SDS011;12217;50.792;4.372;2023-07-31T13:29:17;10.48;;;5.63;;
24008;SDS011;12217;50.792;4.372;2023-07-31T13:31:43;9.77;;;5.78;;
24008;SDS011;12217;50.792;4.372;2023-07-31T13:34:08;7.75;;;5.40;;
24008;SDS011;12217;50.792;4.372;2023-07-31T13:36:34;12.02;;;5.75;;
24008;SDS011;12217;50.792;4.372;2023-07-31T13:39:01;11.57;;;5.40;;
24008;SDS011;12217;50.792;4.372;2023-07-31T13:41:27;11.77;;;5.55;;
24008;SDS011;12217;50.792;4.372;2023-07-31T13:43:53;10.77;;;5.20;;
24008;SDS011;12217;50.792;4.372;2023-07-31T13:46:18;8.63;;;5.22;;
24008;SDS011;12217;50.792;4.372;2023-07-31T13:48:44;9.50;;;5.07;;
24008;SDS011;12217;50.792;4.372;2023-07-31T13:51:09;12.85;;;4.95;;
24008;SDS011;12217;50.792;4.372;2023-07-31T13:53:35;7.57;;;4.65;;
24008;SDS011;12217;50.792;4.372;2023-07-31T13:56:00;8.70;;;4.85;;
24008;SDS011;12217;50.792;4.372;2023-07-31T13:58:26;8.00;;;5.13;;
24008;SDS011;12217;50.792;4.372;2023-07-31T14:00:51;8.27;;;4.80;;
24008;SDS011;12217;50.792;4.372;2023-07-31T14:03:17;6.93;;;4.55;;
24008;SDS011;12217;50.792;4.372;2023-07-31T14:05:43;8.48;;;4.82;;
24008;SDS011;12217;50.792;4.372;2023-07-31T14:08:08;9.52;;;5.20;;
24008;SDS011;12217;50.792;4.372;2023-07-31T14:10:34;8.13;;;5.18;;
24008;SDS011;12217;50.792;4.372;2023-07-31T14:12:59;9.05;;;4.55;;
24008;SDS011;12217;50.792;4.372;2023-07-31T14:15:25;6.53;;;4.75;;
24008;SDS011;12217;50.792;4.372;2023-07-31T14:17:50;8.63;;;5.20;;
24008;SDS011;12217;50.792;4.372;2023-07-31T14:20:16;10.98;;;5.00;;
24008;SDS011;12217;50.792;4.372;2023-07-31T14:22:42;7.78;;;4.75;;
24008;SDS011;12217;50.792;4.372;2023-07-31T14:25:08;9.35;;;5.43;;
24008;SDS011;12217;50.792;4.372;2023-07-31T14:27:35;7.70;;;4.93;;
24008;SDS011;12217;50.792;4.372;2023-07-31T14:30:01;7.30;;;4.50;;
24008;SDS011;12217;50.792;4.372;2023-07-31T14:32:27;7.32;;;4.68;;
24008;SDS011;12217;50.792;4.372;2023-07-31T14:34:53;6.85;;;4.57;;
24008;SDS011;12217;50.792;4.372;2023-07-31T14:37:19;6.43;;;3.90;;
24008;SDS011;12217;50.792;4.372;2023-07-31T14:39:45;8.20;;;4.50;;
24008;SDS011;12217;50.792;4.372;2023-07-31T14:42:11;10.13;;;3.95;;
24008;SDS011;12217;50.792;4.372;2023-07-31T14:44:37;6.63;;;3.95;;
24008;SDS011;12217;50.792;4.372;2023-07-31T14:47:02;8.05;;;3.83;;
24008;SDS011;12217;50.792;4.372;2023-07-31T14:49:28;4.40;;;3.30;;
24008;SDS011;12217;50.792;4.372;2023-07-31T14:51:54;6.13;;;3.83;;
24008;SDS011;12217;50.792;4.372;2023-07-31T14:54:20;6.70;;;3.42;;